<?xml version="1.0" encoding="UTF-8" standalone="no" ?>
<gpx version="1.1" creator="Visorando" xmlns:xsi="http://www.w3.org/2001/XMLSchema-instance" xmlns="http://www.topografix.com/GPX/1/1" xsi:schemaLocation="http://www.topografix.com/GPX/1/1 http://www.topografix.com/GPX/1/1/gpx.xsd">
 <metadata>
  <name>Randonnée du 31/08/2020 à 15:34</name>
  <link href="https://www.visorando.com/randonnee-/3948108">
   <text>https://www.visorando.com/randonnee-/3948108</text>
  </link>
 </metadata>
 <trk>
  <name>Randonnée du 31/08/2020 à 15:34</name>
  <trkseg>
   <trkpt lat="47.892345" lon="6.803599">
    <ele>761</ele>
    <time>2020-08-31T15:34:56+02:00</time>
   </trkpt>
   <trkpt lat="47.892115" lon="6.803513">
    <ele>760</ele>
    <time>2020-08-31T15:35:01+02:00</time>
   </trkpt>
   <trkpt lat="47.891799" lon="6.802998">
    <ele>760</ele>
    <time>2020-08-31T15:35:06+02:00</time>
   </trkpt>
   <trkpt lat="47.891511" lon="6.802698">
    <ele>761</ele>
    <time>2020-08-31T15:35:11+02:00</time>
   </trkpt>
   <trkpt lat="47.89105" lon="6.802655">
    <ele>765</ele>
    <time>2020-08-31T15:35:16+02:00</time>
   </trkpt>
   <trkpt lat="47.890446" lon="6.802655">
    <ele>772</ele>
    <time>2020-08-31T15:35:21+02:00</time>
   </trkpt>
   <trkpt lat="47.889899" lon="6.802783">
    <ele>771</ele>
    <time>2020-08-31T15:35:26+02:00</time>
   </trkpt>
   <trkpt lat="47.889094" lon="6.802655">
    <ele>772</ele>
    <time>2020-08-31T15:35:31+02:00</time>
   </trkpt>
   <trkpt lat="47.888576" lon="6.802483">
    <ele>774</ele>
    <time>2020-08-31T15:35:36+02:00</time>
   </trkpt>
   <trkpt lat="47.888058" lon="6.80214">
    <ele>771</ele>
    <time>2020-08-31T15:35:41+02:00</time>
   </trkpt>
   <trkpt lat="47.887741" lon="6.801453">
    <ele>772</ele>
    <time>2020-08-31T15:35:46+02:00</time>
   </trkpt>
   <trkpt lat="47.887453" lon="6.800809">
    <ele>772</ele>
    <time>2020-08-31T15:35:51+02:00</time>
   </trkpt>
   <trkpt lat="47.887252" lon="6.800337">
    <ele>770</ele>
    <time>2020-08-31T15:35:56+02:00</time>
   </trkpt>
   <trkpt lat="47.88705" lon="6.799221">
    <ele>768</ele>
    <time>2020-08-31T15:36:01+02:00</time>
   </trkpt>
   <trkpt lat="47.887165" lon="6.798449">
    <ele>772</ele>
    <time>2020-08-31T15:36:06+02:00</time>
   </trkpt>
   <trkpt lat="47.88705" lon="6.797891">
    <ele>770</ele>
    <time>2020-08-31T15:36:11+02:00</time>
   </trkpt>
   <trkpt lat="47.887108" lon="6.797505">
    <ele>777</ele>
    <time>2020-08-31T15:36:16+02:00</time>
   </trkpt>
   <trkpt lat="47.886647" lon="6.79729">
    <ele>770</ele>
    <time>2020-08-31T15:36:21+02:00</time>
   </trkpt>
   <trkpt lat="47.886388" lon="6.796646">
    <ele>771</ele>
    <time>2020-08-31T15:36:26+02:00</time>
   </trkpt>
   <trkpt lat="47.886245" lon="6.79596">
    <ele>775</ele>
    <time>2020-08-31T15:36:31+02:00</time>
   </trkpt>
   <trkpt lat="47.885957" lon="6.795874">
    <ele>767</ele>
    <time>2020-08-31T15:36:36+02:00</time>
   </trkpt>
   <trkpt lat="47.885784" lon="6.795531">
    <ele>765</ele>
    <time>2020-08-31T15:36:41+02:00</time>
   </trkpt>
   <trkpt lat="47.885496" lon="6.795187">
    <ele>758</ele>
    <time>2020-08-31T15:36:46+02:00</time>
   </trkpt>
   <trkpt lat="47.885352" lon="6.794286">
    <ele>758</ele>
    <time>2020-08-31T15:36:51+02:00</time>
   </trkpt>
   <trkpt lat="47.885151" lon="6.793471">
    <ele>753</ele>
    <time>2020-08-31T15:36:56+02:00</time>
   </trkpt>
   <trkpt lat="47.885036" lon="6.792655">
    <ele>748</ele>
    <time>2020-08-31T15:37:01+02:00</time>
   </trkpt>
   <trkpt lat="47.884863" lon="6.792012">
    <ele>740</ele>
    <time>2020-08-31T15:37:06+02:00</time>
   </trkpt>
   <trkpt lat="47.884748" lon="6.791497">
    <ele>736</ele>
    <time>2020-08-31T15:37:11+02:00</time>
   </trkpt>
   <trkpt lat="47.884719" lon="6.790767">
    <ele>734</ele>
    <time>2020-08-31T15:37:16+02:00</time>
   </trkpt>
   <trkpt lat="47.884748" lon="6.789995">
    <ele>735</ele>
    <time>2020-08-31T15:37:21+02:00</time>
   </trkpt>
   <trkpt lat="47.884748" lon="6.78948">
    <ele>739</ele>
    <time>2020-08-31T15:37:26+02:00</time>
   </trkpt>
   <trkpt lat="47.884518" lon="6.78905">
    <ele>737</ele>
    <time>2020-08-31T15:37:31+02:00</time>
   </trkpt>
   <trkpt lat="47.884345" lon="6.788664">
    <ele>736</ele>
    <time>2020-08-31T15:37:36+02:00</time>
   </trkpt>
   <trkpt lat="47.884" lon="6.788106">
    <ele>734</ele>
    <time>2020-08-31T15:37:41+02:00</time>
   </trkpt>
   <trkpt lat="47.883626" lon="6.788106">
    <ele>729</ele>
    <time>2020-08-31T15:37:46+02:00</time>
   </trkpt>
   <trkpt lat="47.883453" lon="6.788235">
    <ele>725</ele>
    <time>2020-08-31T15:37:51+02:00</time>
   </trkpt>
   <trkpt lat="47.883251" lon="6.788235">
    <ele>723</ele>
    <time>2020-08-31T15:37:56+02:00</time>
   </trkpt>
   <trkpt lat="47.883194" lon="6.787849">
    <ele>724</ele>
    <time>2020-08-31T15:38:01+02:00</time>
   </trkpt>
   <trkpt lat="47.883079" lon="6.787463">
    <ele>721</ele>
    <time>2020-08-31T15:38:06+02:00</time>
   </trkpt>
   <trkpt lat="47.883338" lon="6.787205">
    <ele>724</ele>
    <time>2020-08-31T15:38:11+02:00</time>
   </trkpt>
   <trkpt lat="47.88351" lon="6.787033">
    <ele>725</ele>
    <time>2020-08-31T15:38:16+02:00</time>
   </trkpt>
   <trkpt lat="47.883942" lon="6.786776">
    <ele>728</ele>
    <time>2020-08-31T15:38:21+02:00</time>
   </trkpt>
   <trkpt lat="47.884144" lon="6.786561">
    <ele>729</ele>
    <time>2020-08-31T15:38:26+02:00</time>
   </trkpt>
   <trkpt lat="47.884489" lon="6.786175">
    <ele>735</ele>
    <time>2020-08-31T15:38:31+02:00</time>
   </trkpt>
   <trkpt lat="47.884633" lon="6.785961">
    <ele>736</ele>
    <time>2020-08-31T15:38:36+02:00</time>
   </trkpt>
   <trkpt lat="47.884834" lon="6.785961">
    <ele>740</ele>
    <time>2020-08-31T15:38:41+02:00</time>
   </trkpt>
   <trkpt lat="47.885065" lon="6.786046">
    <ele>744</ele>
    <time>2020-08-31T15:38:46+02:00</time>
   </trkpt>
   <trkpt lat="47.885352" lon="6.786132">
    <ele>749</ele>
    <time>2020-08-31T15:38:51+02:00</time>
   </trkpt>
   <trkpt lat="47.885467" lon="6.78639">
    <ele>755</ele>
    <time>2020-08-31T15:38:56+02:00</time>
   </trkpt>
   <trkpt lat="47.885439" lon="6.78669">
    <ele>759</ele>
    <time>2020-08-31T15:39:01+02:00</time>
   </trkpt>
   <trkpt lat="47.885554" lon="6.786905">
    <ele>763</ele>
    <time>2020-08-31T15:39:06+02:00</time>
   </trkpt>
   <trkpt lat="47.885784" lon="6.786948">
    <ele>765</ele>
    <time>2020-08-31T15:39:11+02:00</time>
   </trkpt>
   <trkpt lat="47.886072" lon="6.787377">
    <ele>769</ele>
    <time>2020-08-31T15:39:16+02:00</time>
   </trkpt>
   <trkpt lat="47.886216" lon="6.788364">
    <ele>781</ele>
    <time>2020-08-31T15:39:21+02:00</time>
   </trkpt>
   <trkpt lat="47.886331" lon="6.789136">
    <ele>786</ele>
    <time>2020-08-31T15:39:26+02:00</time>
   </trkpt>
   <trkpt lat="47.886763" lon="6.790381">
    <ele>799</ele>
    <time>2020-08-31T15:39:31+02:00</time>
   </trkpt>
   <trkpt lat="47.886993" lon="6.790681">
    <ele>804</ele>
    <time>2020-08-31T15:39:36+02:00</time>
   </trkpt>
   <trkpt lat="47.887252" lon="6.792527">
    <ele>816</ele>
    <time>2020-08-31T15:39:41+02:00</time>
   </trkpt>
   <trkpt lat="47.887424" lon="6.793685">
    <ele>813</ele>
    <time>2020-08-31T15:39:46+02:00</time>
   </trkpt>
   <trkpt lat="47.88754" lon="6.794072">
    <ele>812</ele>
    <time>2020-08-31T15:39:51+02:00</time>
   </trkpt>
   <trkpt lat="47.888" lon="6.795187">
    <ele>816</ele>
    <time>2020-08-31T15:39:56+02:00</time>
   </trkpt>
   <trkpt lat="47.888403" lon="6.795831">
    <ele>821</ele>
    <time>2020-08-31T15:40:01+02:00</time>
   </trkpt>
   <trkpt lat="47.888748" lon="6.796217">
    <ele>827</ele>
    <time>2020-08-31T15:40:06+02:00</time>
   </trkpt>
   <trkpt lat="47.888892" lon="6.796861">
    <ele>830</ele>
    <time>2020-08-31T15:40:11+02:00</time>
   </trkpt>
   <trkpt lat="47.888921" lon="6.797805">
    <ele>830</ele>
    <time>2020-08-31T15:40:16+02:00</time>
   </trkpt>
   <trkpt lat="47.889266" lon="6.799522">
    <ele>824</ele>
    <time>2020-08-31T15:40:21+02:00</time>
   </trkpt>
   <trkpt lat="47.889381" lon="6.80008">
    <ele>819</ele>
    <time>2020-08-31T15:40:26+02:00</time>
   </trkpt>
   <trkpt lat="47.889784" lon="6.80038">
    <ele>810</ele>
    <time>2020-08-31T15:40:31+02:00</time>
   </trkpt>
   <trkpt lat="47.890676" lon="6.801625">
    <ele>783</ele>
    <time>2020-08-31T15:40:36+02:00</time>
   </trkpt>
   <trkpt lat="47.891022" lon="6.802011">
    <ele>772</ele>
    <time>2020-08-31T15:40:41+02:00</time>
   </trkpt>
   <trkpt lat="47.891511" lon="6.802655">
    <ele>761</ele>
    <time>2020-08-31T15:40:46+02:00</time>
   </trkpt>
   <trkpt lat="47.891856" lon="6.802998">
    <ele>760</ele>
    <time>2020-08-31T15:40:51+02:00</time>
   </trkpt>
   <trkpt lat="47.892374" lon="6.803427">
    <ele>761</ele>
    <time>2020-08-31T15:40:56+02:00</time>
   </trkpt>
   <trkpt lat="47.89295" lon="6.803813">
    <ele>767</ele>
    <time>2020-08-31T15:41:01+02:00</time>
   </trkpt>
  </trkseg>
 </trk></gpx>